Bethlehem, New York
Current Conditions -  °F | °C
As of 11:51 PM on Wednesday 17 Dec 2014 (Local Time) from KALB Reporting Station
Overcast Overcast  
Wind Chill: 30°   Ceiling: 2700
Heat Index: 37°   Visibility: 10mi
Dew Point: 29°   Wind: 9mph
Humidity: 73%   Direction: 260°W
Pressure: 29.85"   Gusts: NA
Location:  42.6018°N, 73.8686°W
Report Text: KALB 180451Z 26008KT 10SM BKN027 BKN033 OVC060 03/M02 A2985 RMK AO2 SLP110 VCSH NE-SE T00281017 400560017
Loading
Personal Weather Stations






























Interactive Weather Map New forecast layout! Learn more

10-Day Weather Forecast

Advertisements
Track Severe Weather on mobile